Time;durP1;ratioP1;P1;durP2;ratioP2;P2;SDS_P1;SDS_P2;PMS_P1;PMS_P2;Temp;Humidity;BMP_temperature;BMP_pressure;BME280_temperature;BME280_humidity;BME280_pressure;Samples;Min_cycle;Max_cycle;Signal;HPM_P1;HPM_P2
2023/10/05 05:20:16;;;;;;;;;3.00;3.00;;;;;20.74;51.97;102329.31;5065964;27;45724;-77
2023/10/05 05:22:46;;;;;;;;;4.00;4.00;;;;;20.91;51.41;102322.72;5058541;28;45533;-78
2023/10/05 05:25:11;;;;;;;;;6.00;3.00;;;;;21.11;51.23;102321.25;5078398;27;45460;-78
2023/10/05 05:27:37;;;;;;;;;4.67;4.67;;;;;21.33;50.98;102322.34;5063807;28;45653;-77
2023/10/05 05:30:04;;;;;;;;;3.00;3.00;;;;;21.57;50.24;102316.94;5066396;28;45602;-75
2023/10/05 05:32:29;;;;;;;;;8.00;4.33;;;;;21.79;50.22;102309.88;5068110;28;45458;-76
2023/10/05 05:34:55;;;;;;;;;4.67;4.00;;;;;22.02;49.74;102312.66;5068565;27;45409;-75
2023/10/05 05:37:28;;;;;;;;;6.33;6.33;;;;;22.27;49.13;102309.88;5072707;27;45541;-76
2023/10/05 05:39:53;;;;;;;;;4.33;3.00;;;;;22.45;48.84;102289.47;5068041;28;45954;-77
2023/10/05 05:42:19;;;;;;;;;4.00;4.00;;;;;22.66;48.67;102301.38;5064169;28;46095;-76
2023/10/05 05:44:44;;;;;;;;;8.67;5.00;;;;;22.85;48.35;102296.19;5066642;28;48932;-76
2023/10/05 05:47:10;;;;;;;;;4.33;3.00;;;;;23.02;47.86;102297.47;5066805;28;47304;-76
2023/10/05 05:49:45;;;;;;;;;4.33;4.33;;;;;23.17;47.72;102299.91;5064096;28;46111;-76
2023/10/05 05:52:14;;;;;;;;;3.33;3.33;;;;;23.32;47.37;102299.59;5066216;27;45438;-76
2023/10/05 05:54:46;;;;;;;;;4.33;4.00;;;;;23.48;47.03;102305.50;5062710;28;45505;-76
2023/10/05 05:57:12;;;;;;;;;4.00;3.00;;;;;23.60;46.40;102308.13;5066262;28;45557;-76
2023/10/05 05:59:38;;;;;;;;;3.00;3.00;;;;;23.73;46.92;102318.78;5067356;28;45817;-76
2023/10/05 06:02:07;;;;;;;;;4.00;3.67;;;;;23.82;46.22;102318.84;5067950;28;45595;-78
2023/10/05 06:04:32;;;;;;;;;5.67;5.67;;;;;23.92;46.02;102332.47;5067638;28;45780;-79
2023/10/05 06:06:59;;;;;;;;;5.00;5.00;;;;;24.03;45.94;102336.97;5064539;28;45832;-77
2023/10/05 06:09:26;;;;;;;;;6.33;6.00;;;;;24.11;45.72;102333.59;5060817;27;46291;-79
2023/10/05 06:48:51;;;;;;;;;5.33;5.00;;;;;22.17;47.37;102361.97;5074110;27;45551;-75
2023/10/05 06:51:26;;;;;;;;;6.00;4.67;;;;;22.23;47.69;102361.47;5063314;28;45448;-73
2023/10/05 06:53:52;;;;;;;;;5.00;3.67;;;;;22.35;47.29;102346.13;5065742;28;45607;-74
2023/10/05 06:56:18;;;;;;;;;6.67;5.00;;;;;22.51;47.29;102344.91;5068299;28;45454;-74
2023/10/05 06:58:43;;;;;;;;;7.00;5.67;;;;;22.65;47.26;102357.38;5066624;28;46044;-75
2023/10/05 07:01:09;;;;;;;;;5.00;4.00;;;;;22.79;47.25;102353.53;5066514;28;46370;-74
2023/10/05 07:03:36;;;;;;;;;5.33;4.00;;;;;22.92;46.83;102366.94;5069251;27;45422;-75
2023/10/05 07:06:04;;;;;;;;;5.33;5.33;;;;;23.09;46.41;102378.25;5068549;28;45482;-74
2023/10/05 07:08:30;;;;;;;;;4.67;4.67;;;;;23.22;46.10;102376.22;5067893;27;46106;-75
2023/10/05 07:10:55;;;;;;;;;6.33;6.33;;;;;23.35;45.69;102378.81;5068110;28;45453;-74
2023/10/05 07:13:22;;;;;;;;;3.33;3.33;;;;;23.47;45.57;102363.38;5064178;28;46462;-74
2023/10/05 07:15:48;;;;;;;;;6.00;4.67;;;;;23.61;45.37;102358.63;5061120;28;45919;-74
2023/10/05 07:18:15;;;;;;;;;6.33;4.67;;;;;23.70;45.30;102360.56;5066735;28;46927;-74
2023/10/05 07:20:41;;;;;;;;;5.00;5.00;;;;;23.82;44.99;102366.78;5068083;28;45543;-74
2023/10/05 07:23:07;;;;;;;;;3.67;3.67;;;;;23.90;44.95;102374.25;5067296;28;45561;-74
2023/10/05 07:25:33;;;;;;;;;4.00;3.00;;;;;24.01;44.97;102397.75;5063509;28;45445;-78
2023/10/05 07:27:59;;;;;;;;;5.00;5.00;;;;;24.06;44.11;102401.78;5065072;27;45395;-77
2023/10/05 07:30:24;;;;;;;;;5.00;4.00;;;;;24.14;44.60;102401.16;5055728;27;45732;-75
2023/10/05 07:32:50;;;;;;;;;5.00;5.00;;;;;24.24;44.21;102397.66;5067068;28;45483;-73
2023/10/05 07:35:15;;;;;;;;;5.00;5.00;;;;;24.29;44.14;102390.84;5056582;28;45815;-74
2023/10/05 07:37:41;;;;;;;;;4.33;4.33;;;;;24.36;44.10;102402.00;5066214;28;45739;-73
2023/10/05 07:40:13;;;;;;;;;5.00;5.00;;;;;24.40;43.65;102392.59;5056609;27;45574;-74
2023/10/05 07:42:39;;;;;;;;;4.67;4.33;;;;;24.45;43.42;102389.50;5063173;28;45498;-74
2023/10/05 07:45:11;;;;;;;;;3.33;3.33;;;;;24.47;43.65;102393.78;5064066;28;45737;-75
2023/10/05 07:47:44;;;;;;;;;3.33;3.33;;;;;24.53;43.58;102391.53;5076308;27;45460;-73
2023/10/05 07:50:12;;;;;;;;;4.00;4.00;;;;;24.54;43.56;102380.53;5071087;27;45308;-72
2023/10/05 07:52:39;;;;;;;;;4.00;4.00;;;;;24.58;42.86;102382.00;5085902;27;45590;-73
2023/10/05 07:55:08;;;;;;;;;7.00;4.00;;;;;24.62;43.29;102393.44;5074851;27;45654;-72
2023/10/05 07:57:33;;;;;;;;;5.00;5.00;;;;;24.65;43.00;102411.31;5079875;27;45527;-72
2023/10/05 07:59:59;;;;;;;;;4.00;4.00;;;;;24.69;43.26;102423.63;5067254;28;45606;-73
2023/10/05 08:02:24;;;;;;;;;6.00;5.67;;;;;24.69;43.17;102429.03;5070820;28;45610;-74
2023/10/05 08:04:49;;;;;;;;;5.33;4.00;;;;;24.72;42.90;102409.75;5069132;28;45637;-75
2023/10/05 08:07:15;;;;;;;;;2.33;2.33;;;;;24.72;42.49;102416.03;5067002;28;52832;-75
2023/10/05 08:09:42;;;;;;;;;3.67;3.67;;;;;24.73;42.99;102412.31;5067698;28;45389;-75
2023/10/05 08:12:09;;;;;;;;;5.33;4.00;;;;;24.75;42.71;102398.63;5073617;28;45366;-74
2023/10/05 08:14:34;;;;;;;;;6.00;4.33;;;;;24.73;42.96;102387.91;5073898;28;45427;-75
2023/10/05 08:16:59;;;;;;;;;4.67;4.67;;;;;24.76;42.47;102394.91;5072386;28;45582;-74
2023/10/05 08:19:25;;;;;;;;;4.67;4.67;;;;;24.79;42.43;102412.78;5070151;28;45533;-74
2023/10/05 08:21:52;;;;;;;;;3.67;3.67;;;;;24.79;42.23;102416.38;5074585;28;45456;-74
2023/10/05 08:24:18;;;;;;;;;6.00;4.33;;;;;24.81;42.75;102418.94;5071546;28;45454;-78
2023/10/05 08:26:43;;;;;;;;;5.00;5.00;;;;;24.88;42.31;102422.84;5073467;28;45766;-79
2023/10/05 08:29:09;;;;;;;;;6.00;4.00;;;;;24.89;42.53;102419.13;5053157;28;45723;-78
2023/10/05 08:31:35;;;;;;;;;6.00;3.67;;;;;24.94;42.48;102449.50;5064495;28;45793;-79
2023/10/05 08:34:00;;;;;;;;;5.00;5.00;;;;;24.97;42.35;102451.06;5069720;28;45435;-76
2023/10/05 08:36:26;;;;;;;;;5.00;5.00;;;;;25.02;42.49;102442.50;5070983;28;45461;-77
2023/10/05 08:38:55;;;;;;;;;5.00;4.00;;;;;25.06;42.31;102449.38;5070923;27;45607;-76
2023/10/05 08:41:31;;;;;;;;;4.33;4.33;;;;;25.14;42.31;102452.28;5064703;27;45551;-73
2023/10/05 08:44:00;;;;;;;;;5.00;3.33;;;;;25.18;42.16;102466.44;5069189;28;45364;-76
2023/10/05 08:46:27;;;;;;;;;11.67;8.67;;;;;25.21;40.99;102477.00;5072494;28;45435;-76
2023/10/05 08:48:55;;;;;;;;;7.00;5.67;;;;;25.16;40.62;102477.44;5064160;28;45400;-76
2023/10/05 08:51:24;;;;;;;;;7.00;6.33;;;;;25.11;40.62;102487.84;5073179;28;45451;-76
2023/10/05 08:53:57;;;;;;;;;9.67;7.67;;;;;24.99;40.17;102468.06;5073889;28;45507;-76
2023/10/05 08:56:24;;;;;;;;;6.33;6.33;;;;;24.92;40.02;102470.47;5070586;28;46012;-76
2023/10/05 08:58:52;;;;;;;;;6.00;6.00;;;;;24.81;40.17;102479.53;5049006;28;45632;-76
2023/10/05 09:01:27;;;;;;;;;6.33;5.33;;;;;24.73;40.28;102485.63;5070729;28;45491;-76
2023/10/05 09:04:01;;;;;;;;;6.33;5.67;;;;;24.66;40.42;102487.19;5063454;28;45413;-76
2023/10/05 09:06:27;;;;;;;;;8.00;7.67;;;;;24.58;40.80;102490.56;5069970;28;46185;-74
2023/10/05 09:09:01;;;;;;;;;9.00;7.00;;;;;24.57;41.07;102502.41;5058349;28;45930;-75
2023/10/05 09:11:31;;;;;;;;;5.00;5.00;;;;;24.60;41.14;102493.13;5065445;28;45512;-76
2023/10/05 09:14:17;;;;;;;;;5.00;5.00;;;;;24.61;41.43;102479.44;5073665;28;45505;-76
2023/10/05 09:16:45;;;;;;;;;5.67;5.67;;;;;24.65;41.17;102473.75;5063584;28;45484;-76
2023/10/05 09:19:17;;;;;;;;;5.00;5.00;;;;;24.68;41.63;102460.75;5062789;28;45492;-76
2023/10/05 09:21:54;;;;;;;;;4.00;4.00;;;;;24.69;41.58;102454.31;5066904;28;45602;-75
2023/10/05 09:24:21;;;;;;;;;5.00;5.00;;;;;24.72;41.44;102451.34;5070627;28;45822;-79
2023/10/05 09:27:14;;;;;;;;;5.00;5.00;;;;;24.71;41.27;102443.31;5067544;28;45623;-74
2023/10/05 09:29:41;;;;;;;;;10.00;8.00;;;;;24.75;41.45;102447.50;5067365;28;45535;-74
2023/10/05 09:32:21;;;;;;;;;4.67;4.33;;;;;24.78;41.24;102452.66;5072427;28;45411;-74
2023/10/05 09:34:49;;;;;;;;;4.00;4.00;;;;;24.80;41.45;102456.09;5071971;28;45427;-75
2023/10/05 09:37:16;;;;;;;;;4.67;4.67;;;;;24.81;41.10;102462.41;5071483;28;45735;-74
2023/10/05 09:39:44;;;;;;;;;6.00;6.00;;;;;24.83;41.19;102469.44;5072953;28;45434;-74
2023/10/05 09:42:16;;;;;;;;;7.33;7.33;;;;;24.86;41.33;102479.16;5072691;27;45556;-74
2023/10/05 09:44:51;;;;;;;;;6.33;6.00;;;;;24.89;41.54;102469.91;5073207;27;45396;-74
2023/10/05 09:47:22;;;;;;;;;3.67;3.67;;;;;24.90;41.54;102467.03;5061688;28;46587;-74
2023/10/05 09:49:50;;;;;;;;;5.67;5.00;;;;;24.93;41.08;102463.19;5051840;28;45697;-74
2023/10/05 09:52:19;;;;;;;;;6.00;6.00;;;;;24.94;41.14;102452.19;5072768;28;45396;-74
2023/10/05 09:54:47;;;;;;;;;6.67;5.00;;;;;24.96;41.13;102461.06;5073000;28;45470;-74
2023/10/05 09:57:16;;;;;;;;;5.00;4.67;;;;;25.00;41.04;102470.66;5072342;28;45683;-74
2023/10/05 09:59:44;;;;;;;;;5.67;5.00;;;;;25.02;40.97;102472.38;5072849;28;45719;-74
2023/10/05 10:02:17;;;;;;;;;5.00;5.00;;;;;25.00;41.10;102476.09;5070064;28;45607;-74
2023/10/05 10:04:46;;;;;;;;;5.00;4.00;;;;;25.01;40.88;102479.66;5072425;28;45543;-75
2023/10/05 10:07:22;;;;;;;;;7.00;5.00;;;;;25.00;41.09;102478.81;5072589;28;46237;-74
2023/10/05 10:09:53;;;;;;;;;7.33;5.00;;;;;25.06;40.70;102488.25;5072097;28;45396;-74
2023/10/05 10:12:38;;;;;;;;;6.00;5.00;;;;;25.08;40.99;102482.69;5063203;28;45620;-74
2023/10/05 10:15:05;;;;;;;;;6.00;3.67;;;;;25.08;41.24;102467.25;5068482;28;45485;-74
2023/10/05 10:17:32;;;;;;;;;4.67;4.00;;;;;25.10;40.86;102458.97;5066718;28;47261;-74
2023/10/05 10:20:17;;;;;;;;;6.00;5.00;;;;;25.12;40.77;102465.13;5071923;28;45459;-74
2023/10/05 10:22:50;;;;;;;;;5.33;3.33;;;;;25.12;41.13;102459.69;5072664;28;45540;-74
2023/10/05 10:25:41;;;;;;;;;7.33;5.00;;;;;25.12;40.86;102449.69;5072417;28;45454;-74
2023/10/05 10:28:56;;;;;;;;;5.33;3.67;;;;;25.15;40.69;102439.53;5069890;28;46120;-75
2023/10/05 10:31:29;;;;;;;;;7.00;6.00;;;;;25.15;41.13;102434.97;5070513;28;45404;-74
2023/10/05 10:33:55;;;;;;;;;5.00;5.00;;;;;25.15;40.77;102415.06;5065907;28;45562;-74
2023/10/05 10:36:55;;;;;;;;;5.33;5.33;;;;;25.15;41.15;102404.22;5069315;28;45559;-74
2023/10/05 10:39:28;;;;;;;;;5.33;5.33;;;;;25.14;40.97;102392.50;5068736;28;45923;-74
2023/10/05 10:42:12;;;;;;;;;4.67;4.67;;;;;25.16;40.91;102403.19;5068636;28;45750;-74
2023/10/05 10:44:57;;;;;;;;;6.33;4.67;;;;;25.15;40.51;102415.94;5069619;27;45510;-74
2023/10/05 10:47:24;;;;;;;;;5.00;5.00;;;;;25.11;39.71;102412.66;5044301;28;45833;-72
2023/10/05 10:50:45;;;;;;;;;4.67;4.67;;;;;25.09;40.37;102419.22;5068885;28;45668;-73
2023/10/05 10:52:50;;;;;;;;;4.00;4.00;;;;;25.06;40.75;102435.78;5056065;28;45352;-72
2023/10/05 10:55:17;;;;;;;;;4.67;4.00;;;;;25.05;40.18;102439.50;5067919;28;45466;-72
2023/10/05 10:57:53;;;;;;;;;5.00;5.00;;;;;25.05;40.29;102439.50;5047536;28;45706;-72
2023/10/05 11:00:54;;;;;;;;;3.67;3.00;;;;;25.02;40.20;102432.50;5061062;28;45540;-72
2023/10/05 11:03:24;;;;;;;;;4.67;3.33;;;;;25.06;40.51;102422.22;5045121;28;45411;-72
2023/10/05 11:05:54;;;;;;;;;3.00;3.00;;;;;25.06;40.39;102425.75;5071138;28;45464;-74
2023/10/05 11:08:22;;;;;;;;;3.67;3.00;;;;;25.08;40.74;102433.78;5070312;28;45508;-75
2023/10/05 11:11:07;;;;;;;;;6.00;6.00;;;;;25.10;40.89;102437.22;5068337;28;46615;-75
2023/10/05 11:13:33;;;;;;;;;6.33;5.33;;;;;25.13;40.97;102435.09;5058766;28;45676;-75
2023/10/05 11:16:03;;;;;;;;;4.00;4.00;;;;;25.16;40.22;102433.09;5068232;28;45593;-75
2023/10/05 11:18:34;;;;;;;;;4.00;4.00;;;;;25.18;40.35;102429.22;5070739;27;45662;-75
2023/10/05 11:21:23;;;;;;;;;4.67;4.67;;;;;25.23;39.79;102436.97;5071489;28;45739;-74
2023/10/05 11:23:56;;;;;;;;;8.33;3.67;;;;;25.24;40.34;102439.56;5070976;28;45565;-75
2023/10/05 11:26:57;;;;;;;;;2.33;2.33;;;;;25.28;40.42;102434.69;5070576;28;45600;-75
2023/10/05 11:29:42;;;;;;;;;3.00;3.00;;;;;25.34;40.05;102431.41;5049824;28;46441;-75
2023/10/05 11:32:12;;;;;;;;;6.33;4.67;;;;;25.35;40.76;102432.28;5071510;28;45464;-75
2023/10/05 11:34:39;;;;;;;;;3.33;3.33;;;;;25.40;40.10;102419.13;5066372;28;45480;-75
2023/10/05 11:37:15;;;;;;;;;3.33;3.33;;;;;25.41;40.86;102420.00;5073138;28;45408;-74
2023/10/05 11:39:40;;;;;;;;;6.00;4.33;;;;;25.43;40.73;102426.16;5070735;28;45458;-76
2023/10/05 11:42:10;;;;;;;;;4.00;4.00;;;;;25.43;40.68;102424.28;5069953;28;46172;-75
2023/10/05 11:44:38;;;;;;;;;3.33;3.33;;;;;25.45;40.44;102435.88;5062720;27;45640;-74
2023/10/05 11:47:07;;;;;;;;;4.00;2.00;;;;;25.45;40.57;102425.00;5073458;28;45578;-74
2023/10/05 11:49:32;;;;;;;;;4.67;4.67;;;;;25.45;40.73;102413.25;5072741;28;45646;-75
2023/10/05 11:51:59;;;;;;;;;6.00;5.00;;;;;25.46;40.46;102407.69;5072742;28;45582;-75
2023/10/05 11:54:30;;;;;;;;;3.67;2.33;;;;;25.45;40.59;102402.38;5074579;28;45622;-75
2023/10/05 11:56:56;;;;;;;;;3.00;3.00;;;;;25.46;40.99;102396.81;5074000;27;45557;-74
2023/10/05 11:59:35;;;;;;;;;5.00;3.33;;;;;25.48;40.47;102393.97;5074712;28;45424;-74
2023/10/05 12:02:01;;;;;;;;;3.67;3.67;;;;;25.45;41.00;102381.50;5073017;28;46239;-76
2023/10/05 12:04:26;;;;;;;;;4.33;3.33;;;;;25.51;40.90;102386.38;5064421;28;45534;-76
2023/10/05 12:06:58;;;;;;;;;4.00;2.67;;;;;25.52;40.47;102373.66;5073876;28;45663;-76
2023/10/05 12:09:30;;;;;;;;;2.00;2.00;;;;;25.54;41.04;102379.78;5070457;28;45471;-76
2023/10/05 12:11:58;;;;;;;;;4.00;4.00;;;;;25.55;40.76;102372.50;5067142;28;45730;-76
2023/10/05 12:14:24;;;;;;;;;4.00;2.00;;;;;25.58;40.69;102381.25;5056170;28;45534;-76
2023/10/05 12:16:50;;;;;;;;;2.33;2.33;;;;;25.62;40.79;102382.69;5072036;28;45684;-76
2023/10/05 12:19:21;;;;;;;;;3.33;3.33;;;;;25.63;40.41;102372.69;5065135;28;45871;-75
2023/10/05 12:21:47;;;;;;;;;3.00;3.00;;;;;25.67;40.68;102368.69;5042761;28;46536;-75
2023/10/05 12:24:12;;;;;;;;;2.33;2.33;;;;;25.68;41.12;102369.53;5073743;28;45533;-75
2023/10/05 12:26:39;;;;;;;;;3.33;2.00;;;;;25.67;41.34;102365.97;5061433;28;45473;-75
2023/10/05 12:29:12;;;;;;;;;2.33;2.33;;;;;25.71;41.10;102369.25;5072947;28;45542;-75
2023/10/05 12:31:38;;;;;;;;;3.00;3.00;;;;;25.73;41.09;102367.22;5072419;28;45450;-75
2023/10/05 12:34:07;;;;;;;;;3.00;3.00;;;;;25.75;41.05;102367.97;5073170;28;45580;-76
2023/10/05 12:36:34;;;;;;;;;2.67;2.67;;;;;25.76;40.54;102369.66;5062828;28;45591;-76
2023/10/05 12:39:00;;;;;;;;;5.33;4.00;;;;;25.77;41.30;102374.97;5073221;28;45520;-76
2023/10/05 12:41:36;;;;;;;;;3.67;2.67;;;;;25.77;40.57;102383.13;5066547;28;45793;-76
2023/10/05 12:44:02;;;;;;;;;3.67;3.67;;;;;25.79;41.05;102383.00;5069118;28;45411;-76
2023/10/05 12:46:32;;;;;;;;;2.00;2.00;;;;;25.79;40.49;102369.41;5073405;28;45325;-77
2023/10/05 12:49:04;;;;;;;;;4.00;4.00;;;;;25.77;40.70;102360.50;5064648;28;45517;-75
2023/10/05 12:51:29;;;;;;;;;3.00;2.00;;;;;25.79;40.79;102364.78;5072475;28;46178;-80
2023/10/05 12:53:55;;;;;;;;;3.00;3.00;;;;;25.83;40.80;102373.50;5073801;28;46824;-76
2023/10/05 12:56:20;;;;;;;;;3.00;3.00;;;;;25.84;40.60;102371.66;5070883;28;52331;-77
2023/10/05 12:58:45;;;;;;;;;5.67;2.67;;;;;25.83;40.94;102369.94;5071343;28;45509;-76
2023/10/05 13:01:12;;;;;;;;;5.00;4.00;;;;;25.84;40.65;102366.22;5062102;28;45438;-77
2023/10/05 13:03:38;;;;;;;;;4.00;3.00;;;;;25.84;41.02;102367.09;5053320;28;45763;-76
2023/10/05 13:06:06;;;;;;;;;3.00;2.67;;;;;25.83;40.89;102367.22;5073756;28;45427;-75
2023/10/05 13:08:32;;;;;;;;;5.67;3.33;;;;;25.86;41.39;102361.47;5071092;28;45554;-74
2023/10/05 13:10:58;;;;;;;;;3.00;3.00;;;;;25.90;41.73;102365.63;5062658;27;46148;-73
2023/10/05 13:13:25;;;;;;;;;2.67;2.67;;;;;25.95;41.42;102360.63;5059666;28;45601;-78
2023/10/05 13:15:52;;;;;;;;;3.00;3.00;;;;;26.04;41.27;102369.78;5073511;28;45426;-77
2023/10/05 13:18:18;;;;;;;;;5.33;3.67;;;;;26.02;40.84;102361.75;5072580;28;45629;-77
2023/10/05 13:20:54;;;;;;;;;3.67;3.67;;;;;26.06;40.59;102359.59;5072009;28;45864;-77
2023/10/05 13:23:21;;;;;;;;;3.33;3.33;;;;;26.07;40.66;102358.59;5052115;28;45581;-80
2023/10/05 13:25:50;;;;;;;;;2.67;2.67;;;;;26.02;40.49;102352.72;5071878;28;45554;-76
2023/10/05 13:28:19;;;;;;;;;3.00;3.00;;;;;26.03;40.38;102352.59;5072798;28;45543;-75
2023/10/05 13:30:50;;;;;;;;;2.33;2.33;;;;;26.02;40.55;102359.03;5063455;27;46300;-77
2023/10/05 13:33:39;;;;;;;;;2.00;2.00;;;;;26.02;40.55;102356.31;5072490;28;45605;-77
2023/10/05 13:36:11;;;;;;;;;2.00;2.00;;;;;26.01;40.36;102360.03;5060734;28;45799;-77
2023/10/05 13:38:37;;;;;;;;;3.33;3.33;;;;;26.02;40.61;102360.88;5073023;28;45593;-80
2023/10/05 13:43:32;;;;;;;;;2.33;2.33;;;;;26.01;40.50;102359.19;5072157;28;45451;-75
2023/10/05 13:46:07;;;;;;;;;2.67;2.00;;;;;25.96;40.44;102358.75;5063213;28;45868;-74
2023/10/05 13:48:35;;;;;;;;;3.33;3.00;;;;;25.92;40.18;102359.03;5069744;28;45513;-75
2023/10/05 13:51:03;;;;;;;;;4.33;4.33;;;;;25.89;40.42;102353.91;5071281;28;45991;-74
2023/10/05 13:53:29;;;;;;;;;3.33;2.33;;;;;25.86;40.70;102348.75;5072016;28;45360;-74
2023/10/05 13:55:54;;;;;;;;;3.00;3.00;;;;;25.82;40.64;102341.88;5068025;28;45619;-74
2023/10/05 13:58:20;;;;;;;;;2.67;2.67;;;;;25.78;40.91;102335.00;5068820;28;45554;-74
2023/10/05 14:00:47;;;;;;;;;3.00;3.00;;;;;25.79;40.73;102342.19;5059955;28;45566;-76
2023/10/05 14:03:13;;;;;;;;;3.00;3.00;;;;;25.78;40.44;102344.03;5061364;28;45642;-78
2023/10/05 14:05:40;;;;;;;;;4.00;4.00;;;;;25.78;40.87;102340.47;5072723;28;45500;-79
2023/10/05 14:08:10;;;;;;;;;3.67;3.00;;;;;25.77;40.70;102330.59;5068727;28;45514;-75
2023/10/05 14:10:37;;;;;;;;;5.67;2.33;;;;;25.76;40.65;102323.44;5068190;28;46124;-73
2023/10/05 14:13:03;;;;;;;;;3.67;2.00;;;;;25.76;40.33;102318.84;5060672;28;45437;-72
2023/10/05 14:15:28;;;;;;;;;2.00;2.00;;;;;25.74;40.33;102323.56;5053874;28;45627;-73
2023/10/05 14:17:56;;;;;;;;;3.67;1.33;;;;;25.75;40.71;102310.84;5051919;28;45475;-74
2023/10/05 14:20:22;;;;;;;;;2.00;2.00;;;;;25.73;40.50;102313.72;5072241;28;46124;-74
2023/10/05 14:22:47;;;;;;;;;3.33;3.00;;;;;25.70;40.40;102311.28;5055974;28;45604;-74
2023/10/05 14:25:22;;;;;;;;;4.00;4.00;;;;;25.70;41.10;102305.00;5057965;28;45609;-74
2023/10/05 14:27:48;;;;;;;;;3.00;2.67;;;;;25.71;40.70;102304.00;5061753;28;45734;-73
2023/10/05 14:30:17;;;;;;;;;3.67;3.67;;;;;25.68;40.73;102305.13;5068960;28;45883;-73
2023/10/05 14:32:43;;;;;;;;;4.00;4.00;;;;;25.68;40.23;102304.25;5059626;28;45434;-73
2023/10/05 14:35:10;;;;;;;;;6.33;4.00;;;;;25.67;40.37;102305.28;5068635;28;45771;-73
2023/10/05 14:37:42;;;;;;;;;4.00;2.67;;;;;25.68;40.39;102304.25;5068764;28;45666;-73
2023/10/05 14:40:18;;;;;;;;;4.00;2.00;;;;;25.64;40.48;102304.56;5065890;27;47081;-75
2023/10/05 14:42:48;;;;;;;;;3.00;3.00;;;;;25.66;40.65;102304.41;5069953;28;45435;-75
2023/10/05 14:45:14;;;;;;;;;2.00;2.00;;;;;25.67;40.46;102308.00;5063172;27;45450;-74
2023/10/05 14:47:41;;;;;;;;;3.00;3.00;;;;;25.63;40.67;102302.00;5070246;28;45510;-74
2023/10/05 14:50:07;;;;;;;;;2.00;2.00;;;;;25.64;40.29;102306.44;5066364;28;45435;-75
2023/10/05 14:52:35;;;;;;;;;3.00;3.00;;;;;25.64;40.78;102299.13;5064062;28;45991;-74
2023/10/05 14:55:01;;;;;;;;;4.00;3.00;;;;;25.65;40.67;102302.69;5064361;28;45778;-74
2023/10/05 14:57:29;;;;;;;;;6.33;3.00;;;;;25.65;40.65;102309.00;5065291;28;45529;-74
2023/10/05 14:59:56;;;;;;;;;2.00;2.00;;;;;25.63;40.01;102294.69;5063984;28;47231;-74
2023/10/05 15:02:21;;;;;;;;;5.00;4.00;;;;;25.64;40.49;102301.84;5069874;27;45499;-74
2023/10/05 15:04:47;;;;;;;;;3.00;3.00;;;;;25.65;40.41;102303.56;5069204;28;45495;-74
2023/10/05 15:07:12;;;;;;;;;2.33;2.00;;;;;25.61;39.93;102299.41;5064207;28;45573;-73
2023/10/05 15:09:38;;;;;;;;;2.67;2.33;;;;;25.62;40.57;102303.84;5049431;27;47178;-73
2023/10/05 15:12:04;;;;;;;;;3.00;2.33;;;;;25.62;40.44;102303.84;5062640;28;45422;-74
2023/10/05 15:14:30;;;;;;;;;3.67;2.67;;;;;25.61;40.16;102295.84;5063871;28;45530;-72
2023/10/05 15:16:57;;;;;;;;;2.00;2.00;;;;;25.60;40.29;102289.56;5064859;27;45419;-72
2023/10/05 15:19:22;;;;;;;;;4.00;3.00;;;;;25.59;40.55;102290.53;5047345;28;46680;-71
2023/10/05 15:21:48;;;;;;;;;2.33;2.33;;;;;25.59;39.87;102293.25;5066316;28;45470;-72
2023/10/05 15:24:14;;;;;;;;;2.00;2.00;;;;;25.57;40.16;102292.56;5064335;28;45480;-72
2023/10/05 15:26:40;;;;;;;;;4.00;2.33;;;;;25.58;40.65;102287.97;5074878;28;45357;-72
2023/10/05 15:29:08;;;;;;;;;3.00;1.33;;;;;25.58;40.17;102290.69;5059562;28;46013;-72
2023/10/05 15:31:34;;;;;;;;;2.00;2.00;;;;;25.54;40.47;102290.06;5072411;28;45641;-75
2023/10/05 15:34:03;;;;;;;;;3.33;3.00;;;;;25.56;40.31;102290.84;5065804;28;45557;-74
2023/10/05 15:36:28;;;;;;;;;5.00;3.00;;;;;25.60;40.23;102291.41;5074421;27;45484;-75
2023/10/05 15:38:54;;;;;;;;;2.00;2.00;;;;;25.59;40.09;102290.53;5067196;27;47051;-73
2023/10/05 15:41:20;;;;;;;;;5.00;3.00;;;;;25.58;40.28;102286.09;5075226;28;45420;-73
2023/10/05 15:43:45;;;;;;;;;6.00;6.00;;;;;25.60;39.94;102289.56;5066038;28;45926;-74
2023/10/05 15:46:11;;;;;;;;;2.00;2.00;;;;;25.58;40.27;102291.53;5066759;28;51476;-74
2023/10/05 16:36:29;;;;;;;;;3.67;3.67;;;;;22.72;43.76;102263.84;5066397;27;45882;-76
2023/10/05 16:38:56;;;;;;;;;5.00;4.33;;;;;22.76;43.61;102268.03;5065347;28;45759;-73
2023/10/05 16:41:21;;;;;;;;;5.00;3.00;;;;;22.88;43.34;102268.00;5061751;28;45535;-73
2023/10/05 16:43:46;;;;;;;;;4.00;4.00;;;;;22.99;42.79;102270.69;5063083;28;46504;-73
2023/10/05 16:46:12;;;;;;;;;2.00;2.00;;;;;23.12;43.31;102266.94;5065687;28;48071;-76
2023/10/05 16:48:37;;;;;;;;;4.67;4.67;;;;;23.27;42.97;102265.66;5067480;28;45447;-75
2023/10/05 16:51:05;;;;;;;;;7.00;3.67;;;;;23.42;42.97;102263.50;5061792;27;45486;-78
2023/10/05 16:53:33;;;;;;;;;4.00;3.00;;;;;23.58;42.88;102264.91;5097571;27;45489;-76
2023/10/05 16:55:59;;;;;;;;;7.33;4.00;;;;;23.71;42.13;102267.44;5060647;28;46776;-77
2023/10/05 16:58:25;;;;;;;;;4.67;4.67;;;;;23.76;42.35;102248.91;5060097;28;45518;-77
